Fremont, Nebraska
Current Conditions -  °F | °C
As of 6:35 PM on Saturday 25 Oct 2014 (Local Time) from KFET Reporting Station
Clear Clear  
Wind Chill: 68°   Ceiling: Unl
Heat Index: 68°   Visibility: 10mi
Dew Point: 38°   Wind: 3mph
Humidity: 34%   Direction: 70°ENE
Pressure: 30.04"   Gusts: NA
Location:  41.43°N, 96.5°W
Report Text: KFET 252335Z AUTO 07003KT 10SM CLR 20/04 A3004 RMK AO2 T01980035
Loading
Personal Weather Stations






























Interactive Weather Map
Tropical Storm Tracking
New forecast layout! Learn more

10-Day Weather Forecast

Advertisements
Track Severe Weather on mobile